createdAt,value
2023-01-21T00:00:48.220Z,26.10
2023-01-21T00:01:48.161Z,27.10
2023-01-21T00:02:48.126Z,26.20
2023-01-21T00:03:48.152Z,26.80
2023-01-21T00:04:48.070Z,27.60
2023-01-21T00:05:48.044Z,25.90
2023-01-21T00:06:48.020Z,25.90
2023-01-21T00:07:47.987Z,25.30
2023-01-21T00:08:47.950Z,26.50
2023-01-21T00:09:47.926Z,25.80
2023-01-21T00:10:47.902Z,26.50
2023-01-21T00:11:47.869Z,26.30
2023-01-21T00:12:47.837Z,26.20
2023-01-21T00:13:47.820Z,25.90
2023-01-21T00:14:47.776Z,25.90
2023-01-21T00:15:47.819Z,25.90
2023-01-21T00:16:47.748Z,25.60
2023-01-21T00:17:47.698Z,25.90
2023-01-21T00:18:47.661Z,25.10
2023-01-21T00:19:47.636Z,25.70
2023-01-21T00:20:47.602Z,25.90
2023-01-21T00:21:47.573Z,25.40
2023-01-21T00:22:47.548Z,26.20
2023-01-21T00:23:47.521Z,24.50
2023-01-21T00:24:47.489Z,25.40
2023-01-21T00:25:47.464Z,24.60
2023-01-21T00:26:47.460Z,25.00
2023-01-21T00:27:47.398Z,25.20
2023-01-21T00:28:47.378Z,26.10
2023-01-21T00:29:47.358Z,25.00
2023-01-21T00:30:47.410Z,25.20
2023-01-21T00:31:47.381Z,24.50
2023-01-21T00:32:47.277Z,25.80
2023-01-21T00:33:47.228Z,25.20
2023-01-21T00:34:47.200Z,25.10
2023-01-21T00:35:47.168Z,25.50
2023-01-21T00:36:47.143Z,25.30
2023-01-21T00:37:47.114Z,24.80
2023-01-21T00:38:47.082Z,25.00
2023-01-21T00:39:47.057Z,25.10
2023-01-21T00:40:47.017Z,25.80
2023-01-21T00:41:47.000Z,25.50
2023-01-21T00:42:46.966Z,24.90
2023-01-21T00:43:46.942Z,25.90
2023-01-21T00:44:46.904Z,25.60
2023-01-21T00:45:46.885Z,26.10
2023-01-21T00:46:46.846Z,25.00
2023-01-21T00:47:46.826Z,26.60
2023-01-21T00:48:46.815Z,24.50
2023-01-21T00:49:46.764Z,26.50
2023-01-21T00:50:46.758Z,25.70
2023-01-21T00:51:46.710Z,25.50
2023-01-21T00:52:46.670Z,25.80
2023-01-21T00:53:46.648Z,25.60
2023-01-21T00:54:46.629Z,26.70
2023-01-21T00:55:46.601Z,26.10
2023-01-21T00:56:46.556Z,27.60
2023-01-21T00:57:46.536Z,27.30
2023-01-21T00:58:46.500Z,25.30
2023-01-21T00:59:46.473Z,26.70
2023-01-21T01:00:46.440Z,26.80
2023-01-21T01:01:46.462Z,25.80
2023-01-21T01:02:46.455Z,26.10
2023-01-21T01:03:46.357Z,27.30
2023-01-21T01:04:46.346Z,25.80
2023-01-21T01:05:46.302Z,26.60
2023-01-21T01:06:46.261Z,28.00
2023-01-21T01:07:46.241Z,26.20
2023-01-21T01:08:46.222Z,26.80
2023-01-21T01:09:46.182Z,25.50
2023-01-21T01:10:46.146Z,26.50
2023-01-21T01:11:46.123Z,28.30
2023-01-21T01:12:46.092Z,26.30
2023-01-21T01:13:46.060Z,26.10
2023-01-21T01:14:46.039Z,26.00
2023-01-21T01:15:46.010Z,26.80
2023-01-21T01:16:45.972Z,26.90
2023-01-21T01:17:45.947Z,28.40
2023-01-21T01:18:45.914Z,27.40
2023-01-21T01:19:45.882Z,28.10
2023-01-21T01:20:45.878Z,27.20
2023-01-21T01:21:45.842Z,27.50
2023-01-21T01:22:45.793Z,28.40
2023-01-21T01:23:45.765Z,28.70
2023-01-21T01:24:45.736Z,28.10
2023-01-21T01:25:45.715Z,28.70
2023-01-21T01:26:45.681Z,29.70
2023-01-21T01:27:45.651Z,26.70
2023-01-21T01:28:45.629Z,28.10
2023-01-21T01:29:45.594Z,29.00
2023-01-21T01:30:45.647Z,27.60
2023-01-21T01:31:45.669Z,29.30
2023-01-21T01:32:45.501Z,28.10
2023-01-21T01:33:45.472Z,28.50
2023-01-21T01:34:45.468Z,28.00
2023-01-21T01:35:45.417Z,29.10
2023-01-21T01:36:45.410Z,28.20
2023-01-21T01:37:45.356Z,29.40
2023-01-21T01:38:45.335Z,28.70
2023-01-21T01:39:45.305Z,27.90
2023-01-21T01:40:45.277Z,29.10
2023-01-21T01:41:45.249Z,28.20
2023-01-21T01:42:45.220Z,28.40
2023-01-21T01:43:45.179Z,30.80
2023-01-21T01:44:45.152Z,28.60
2023-01-21T01:45:45.134Z,29.00
2023-01-21T01:46:45.147Z,29.40
2023-01-21T01:47:45.068Z,29.00
2023-01-21T01:48:45.053Z,27.70
2023-01-21T01:49:45.004Z,29.70
2023-01-21T01:50:45.010Z,29.40
2023-01-21T01:51:44.951Z,29.20
2023-01-21T01:52:44.946Z,27.70
2023-01-21T01:53:44.885Z,29.70
2023-01-21T01:54:44.870Z,29.10
2023-01-21T01:55:44.832Z,30.80
2023-01-21T01:56:44.803Z,29.20
2023-01-21T01:57:44.768Z,28.60
2023-01-21T01:58:44.743Z,28.50
2023-01-21T01:59:44.717Z,30.20
2023-01-21T02:00:44.694Z,28.30
2023-01-21T02:01:44.788Z,29.20
2023-01-21T02:02:44.682Z,29.50
2023-01-21T02:03:44.603Z,29.80
2023-01-21T02:04:44.579Z,29.30
2023-01-21T02:05:44.548Z,28.90
2023-01-21T02:06:44.512Z,28.40
2023-01-21T02:07:44.481Z,28.80
2023-01-21T02:08:44.483Z,27.50
2023-01-21T02:09:44.425Z,28.40
2023-01-21T02:10:44.395Z,28.70
2023-01-21T02:11:44.370Z,28.30
2023-01-21T02:12:44.358Z,28.10
2023-01-21T02:13:44.303Z,29.10
2023-01-21T02:14:44.281Z,27.20
2023-01-21T02:15:44.245Z,28.30
2023-01-21T02:16:44.223Z,27.00
2023-01-21T02:17:44.188Z,28.60
2023-01-21T02:18:44.157Z,28.00
2023-01-21T02:19:44.143Z,27.70
2023-01-21T02:20:44.109Z,27.90
2023-01-21T02:21:44.069Z,28.50
2023-01-21T02:22:44.045Z,28.90
2023-01-21T02:23:44.010Z,29.60
2023-01-21T02:24:44.013Z,29.20
2023-01-21T02:25:43.956Z,30.10
2023-01-21T02:26:43.927Z,29.40
2023-01-21T02:27:43.895Z,29.90
2023-01-21T02:28:43.873Z,29.00
2023-01-21T02:29:43.834Z,27.70
2023-01-21T02:30:43.852Z,29.00
2023-01-21T02:31:43.811Z,28.50
2023-01-21T02:32:43.750Z,28.70
2023-01-21T02:33:43.723Z,29.00
2023-01-21T02:34:43.708Z,29.90
2023-01-21T02:35:43.660Z,29.10
2023-01-21T02:36:43.638Z,28.20
2023-01-21T02:37:43.607Z,31.90
2023-01-21T02:38:43.580Z,31.30
2023-01-21T02:39:43.544Z,31.40
2023-01-21T02:40:43.546Z,32.50
2023-01-21T02:41:43.487Z,32.20
2023-01-21T02:42:43.457Z,33.60
2023-01-21T02:43:43.429Z,34.30
2023-01-21T02:44:43.399Z,36.30
2023-01-21T02:45:43.383Z,35.30
2023-01-21T02:46:43.380Z,35.30
2023-01-21T02:47:43.310Z,37.00
2023-01-21T02:48:43.286Z,37.90
2023-01-21T02:49:43.256Z,37.10
2023-01-21T02:50:43.323Z,37.80
2023-01-21T02:51:43.195Z,36.40
2023-01-21T02:52:43.169Z,33.30
2023-01-21T02:53:43.142Z,32.60
2023-01-21T02:54:43.115Z,31.30
2023-01-21T02:55:43.593Z,30.80
2023-01-21T02:56:43.073Z,30.60
2023-01-21T02:57:43.028Z,30.10
2023-01-21T02:58:42.993Z,30.40
2023-01-21T02:59:42.962Z,30.20
2023-01-21T03:00:42.965Z,28.40
2023-01-21T03:01:42.950Z,30.80
2023-01-21T03:02:42.878Z,29.70
2023-01-21T03:03:42.845Z,29.40
2023-01-21T03:04:42.818Z,29.10
2023-01-21T03:05:42.793Z,30.60
2023-01-21T03:06:42.770Z,30.40
2023-01-21T03:07:42.727Z,30.40
2023-01-21T03:08:42.704Z,29.20
2023-01-21T03:09:42.667Z,28.70
2023-01-21T03:10:42.642Z,30.80
2023-01-21T03:11:42.609Z,30.40
2023-01-21T03:12:42.602Z,31.20
2023-01-21T03:13:42.555Z,29.80
2023-01-21T03:14:42.522Z,30.20
2023-01-21T03:15:42.493Z,30.50
2023-01-21T03:16:42.466Z,30.60
2023-01-21T03:17:42.434Z,32.00
2023-01-21T03:18:42.408Z,33.00
2023-01-21T03:19:42.385Z,30.00
2023-01-21T03:20:42.357Z,30.40
2023-01-21T03:21:42.321Z,31.40
2023-01-21T03:22:42.288Z,33.00
2023-01-21T03:23:42.259Z,31.50
2023-01-21T03:24:42.232Z,32.70
2023-01-21T03:25:42.205Z,32.20
2023-01-21T03:26:42.177Z,33.00
2023-01-21T03:27:42.142Z,32.20
2023-01-21T03:28:42.133Z,32.00
2023-01-21T03:29:42.107Z,32.50
2023-01-21T03:30:42.077Z,33.90
2023-01-21T03:31:42.034Z,32.20
2023-01-21T03:32:41.995Z,32.20
2023-01-21T03:33:41.968Z,33.80
2023-01-21T03:34:41.935Z,32.50
2023-01-21T03:35:41.901Z,33.50
2023-01-21T03:36:41.878Z,34.90
2023-01-21T03:37:41.850Z,34.90
2023-01-21T03:38:41.817Z,33.20
2023-01-21T03:39:41.789Z,34.10
2023-01-21T03:40:41.760Z,32.40
2023-01-21T03:41:41.735Z,34.20
2023-01-21T03:42:41.702Z,33.40
2023-01-21T03:43:41.663Z,34.20
2023-01-21T03:44:41.668Z,35.00
2023-01-21T03:45:41.690Z,33.90
2023-01-21T03:46:41.584Z,35.60
2023-01-21T03:47:41.565Z,34.00
2023-01-21T03:48:41.520Z,33.80
2023-01-21T03:49:41.489Z,33.50
2023-01-21T03:50:41.462Z,33.00
2023-01-21T03:51:41.452Z,33.90
2023-01-21T03:52:41.403Z,33.30
2023-01-21T03:53:41.372Z,32.50
2023-01-21T03:54:41.356Z,34.20
2023-01-21T03:55:41.313Z,32.10
2023-01-21T03:56:41.287Z,33.20
2023-01-21T03:57:41.267Z,32.70
2023-01-21T03:58:41.233Z,34.00
2023-01-21T03:59:41.209Z,33.20
2023-01-21T04:00:41.217Z,32.60
2023-01-21T04:01:41.135Z,34.30
2023-01-21T04:02:41.113Z,34.00
2023-01-21T04:03:41.085Z,32.90
2023-01-21T04:04:41.052Z,33.70
2023-01-21T04:05:41.019Z,32.70
2023-01-21T04:06:40.995Z,32.90
2023-01-21T04:07:40.968Z,32.00
2023-01-21T04:08:40.937Z,33.40
2023-01-21T04:09:40.901Z,33.10
2023-01-21T04:10:40.884Z,33.50
2023-01-21T04:11:40.850Z,31.70
2023-01-21T04:12:40.827Z,32.70
2023-01-21T04:13:40.788Z,33.20
2023-01-21T04:14:40.774Z,34.10
2023-01-21T04:15:40.746Z,32.90
2023-01-21T04:16:40.976Z,33.00
2023-01-21T04:17:40.672Z,32.00
2023-01-21T04:18:40.647Z,32.90
2023-01-21T04:19:40.606Z,32.80
2023-01-21T04:20:40.589Z,31.70
2023-01-21T04:21:40.559Z,32.00
2023-01-21T04:22:40.541Z,31.60
2023-01-21T04:23:40.488Z,32.50
2023-01-21T04:24:40.468Z,31.30
2023-01-21T04:25:40.432Z,32.80
2023-01-21T04:26:40.405Z,32.90
2023-01-21T04:27:40.378Z,31.50
2023-01-21T04:28:40.344Z,32.10
2023-01-21T04:29:40.329Z,32.60
2023-01-21T04:30:40.400Z,32.00
2023-01-21T04:31:40.291Z,32.60
2023-01-21T04:32:40.255Z,31.80
2023-01-21T04:33:40.207Z,33.90
2023-01-21T04:34:40.179Z,32.80
2023-01-21T04:35:40.138Z,32.90
2023-01-21T04:36:40.109Z,32.50
2023-01-21T04:37:40.085Z,33.20
2023-01-21T04:38:40.052Z,33.50
2023-01-21T04:39:40.030Z,33.60
2023-01-21T04:40:39.994Z,34.00
2023-01-21T04:41:39.973Z,33.40
2023-01-21T04:42:39.935Z,32.50
2023-01-21T04:43:39.907Z,33.80
2023-01-21T04:44:39.880Z,33.40
2023-01-21T04:45:39.909Z,32.70
2023-01-21T04:46:39.837Z,33.50
2023-01-21T04:47:39.786Z,32.50
2023-01-21T04:48:39.783Z,33.30
2023-01-21T04:49:39.728Z,32.40
2023-01-21T04:50:39.703Z,33.70
2023-01-21T04:51:39.673Z,31.70
2023-01-21T04:52:39.658Z,34.20
2023-01-21T04:53:39.628Z,32.90
2023-01-21T04:54:39.614Z,34.30
2023-01-21T04:55:39.556Z,32.70
2023-01-21T04:56:39.521Z,33.30
2023-01-21T04:57:39.492Z,30.90
2023-01-21T04:58:39.473Z,32.00
2023-01-21T04:59:39.440Z,33.20
2023-01-21T05:00:39.409Z,33.70
2023-01-21T05:01:39.375Z,31.80
2023-01-21T05:02:39.399Z,32.40
2023-01-21T05:03:39.321Z,30.90
2023-01-21T05:04:39.311Z,32.30
2023-01-21T05:05:39.263Z,31.40
2023-01-21T05:06:39.232Z,33.20
2023-01-21T05:07:39.200Z,31.80
2023-01-21T05:08:39.170Z,32.10
2023-01-21T05:09:39.145Z,32.10
2023-01-21T05:10:39.113Z,32.20
2023-01-21T05:11:39.085Z,32.40
2023-01-21T05:12:39.056Z,32.40
2023-01-21T05:13:39.028Z,32.90
2023-01-21T05:14:39.001Z,30.90
2023-01-21T05:15:39.100Z,33.00
2023-01-21T05:16:39.011Z,30.80
2023-01-21T05:17:38.911Z,32.30
2023-01-21T05:18:38.882Z,31.00
2023-01-21T05:19:38.852Z,29.60
2023-01-21T05:20:38.847Z,32.50
2023-01-21T05:21:38.789Z,31.90
2023-01-21T05:22:38.762Z,33.00
2023-01-21T05:23:38.727Z,31.50
2023-01-21T05:24:38.701Z,30.90
2023-01-21T05:25:38.679Z,31.60
2023-01-21T05:26:38.654Z,31.70
2023-01-21T05:27:38.611Z,33.60
2023-01-21T05:28:38.580Z,30.90
2023-01-21T05:29:38.554Z,33.10
2023-01-21T05:30:40.643Z,31.90
2023-01-21T05:31:38.640Z,31.30
2023-01-21T05:32:38.461Z,31.90
2023-01-21T05:33:38.439Z,31.30
2023-01-21T05:34:38.404Z,32.20
2023-01-21T05:35:38.383Z,32.40
2023-01-21T05:36:38.388Z,31.50
2023-01-21T05:37:38.315Z,32.50
2023-01-21T05:38:38.295Z,32.20
2023-01-21T05:39:38.261Z,32.30
2023-01-21T05:40:38.221Z,30.30
2023-01-21T05:41:38.201Z,32.60
2023-01-21T05:42:38.163Z,32.00
2023-01-21T05:43:38.141Z,32.90
2023-01-21T05:44:38.105Z,32.90
2023-01-21T05:45:38.082Z,32.40
2023-01-21T05:46:38.046Z,33.50
2023-01-21T05:47:38.023Z,32.50
2023-01-21T05:48:37.990Z,31.70
2023-01-21T05:49:37.958Z,32.90
2023-01-21T05:50:37.939Z,32.50
2023-01-21T05:51:37.909Z,33.10
2023-01-21T05:52:37.896Z,32.30
2023-01-21T05:53:37.845Z,32.80
2023-01-21T05:54:37.813Z,32.60
2023-01-21T05:55:37.788Z,33.30
2023-01-21T05:56:37.751Z,33.90
2023-01-21T05:57:37.737Z,33.20
2023-01-21T05:58:37.690Z,33.80
2023-01-21T05:59:37.667Z,35.80
2023-01-21T06:00:37.646Z,36.40
2023-01-21T06:01:37.605Z,36.70
2023-01-21T06:02:37.600Z,39.60
2023-01-21T06:03:37.633Z,42.40
2023-01-21T06:04:37.517Z,44.90
2023-01-21T06:05:37.492Z,46.70
2023-01-21T06:06:37.490Z,50.10
2023-01-21T06:07:37.433Z,50.80
2023-01-21T06:08:37.416Z,51.70
2023-01-21T06:09:37.376Z,48.30
2023-01-21T06:10:37.343Z,48.50
2023-01-21T06:11:37.313Z,45.50
2023-01-21T06:12:37.279Z,42.90
2023-01-21T06:13:37.255Z,39.80
2023-01-21T06:14:37.222Z,38.00
2023-01-21T06:15:37.221Z,37.80
2023-01-21T06:16:37.167Z,36.20
2023-01-21T06:17:37.138Z,37.70
2023-01-21T06:18:37.105Z,37.50
2023-01-21T06:19:37.078Z,37.00
2023-01-21T06:20:37.056Z,38.00
2023-01-21T06:21:37.026Z,36.50
2023-01-21T06:22:36.991Z,35.50
2023-01-21T06:23:36.956Z,36.30
2023-01-21T06:24:36.984Z,36.10
2023-01-21T06:25:36.899Z,34.90
2023-01-21T06:26:36.867Z,36.80
2023-01-21T06:27:36.841Z,36.10
2023-01-21T06:28:36.809Z,37.00
2023-01-21T06:29:36.791Z,37.10
2023-01-21T06:30:36.750Z,38.50
2023-01-21T06:31:36.793Z,35.30
2023-01-21T06:32:36.694Z,35.80
2023-01-21T06:33:36.669Z,36.90
2023-01-21T06:34:36.632Z,35.90
2023-01-21T06:35:36.604Z,36.50
2023-01-21T06:36:36.583Z,34.00
2023-01-21T06:37:36.550Z,37.00
2023-01-21T06:38:36.518Z,36.60
2023-01-21T06:39:36.496Z,36.50
2023-01-21T06:40:36.478Z,35.10
2023-01-21T06:41:36.428Z,34.40
2023-01-21T06:42:36.396Z,35.80
2023-01-21T06:43:36.403Z,34.40
2023-01-21T06:44:36.340Z,36.70
2023-01-21T06:45:36.319Z,34.90
2023-01-21T06:46:36.345Z,34.50
2023-01-21T06:47:36.265Z,34.00
2023-01-21T06:48:36.225Z,34.80
2023-01-21T06:49:36.200Z,33.90
2023-01-21T06:50:36.168Z,34.10
2023-01-21T06:51:36.143Z,35.10
2023-01-21T06:52:36.112Z,34.90
2023-01-21T06:53:36.077Z,33.80
2023-01-21T06:54:36.059Z,33.90
2023-01-21T06:55:36.025Z,33.90
2023-01-21T06:56:36.014Z,33.50
2023-01-21T06:57:35.990Z,34.00
2023-01-21T06:58:35.936Z,34.90
2023-01-21T06:59:35.914Z,34.60
2023-01-21T07:00:35.877Z,34.10
2023-01-21T07:01:35.903Z,34.50
2023-01-21T07:02:35.875Z,33.60
2023-01-21T07:03:35.791Z,37.10
2023-01-21T07:04:35.857Z,35.70
2023-01-21T07:05:35.731Z,34.00
2023-01-21T07:06:35.704Z,34.90
2023-01-21T07:07:35.667Z,34.20
2023-01-21T07:08:35.643Z,35.30
2023-01-21T07:09:35.612Z,33.80
2023-01-21T07:10:35.580Z,34.90
2023-01-21T07:11:35.551Z,35.20
2023-01-21T07:12:35.546Z,36.00
2023-01-21T07:13:35.491Z,35.80
2023-01-21T07:14:35.471Z,35.60
2023-01-21T07:15:35.442Z,35.50
2023-01-21T07:16:35.419Z,34.90
2023-01-21T07:17:35.379Z,37.70
2023-01-21T07:18:35.345Z,35.80
2023-01-21T07:19:35.320Z,36.00
2023-01-21T07:20:35.283Z,36.20
2023-01-21T07:21:35.268Z,36.70
2023-01-21T07:22:35.236Z,36.10
2023-01-21T07:23:35.213Z,36.30
2023-01-21T07:24:35.172Z,37.10
2023-01-21T07:25:35.198Z,37.10
2023-01-21T07:26:35.115Z,36.40
2023-01-21T07:27:35.106Z,35.10
2023-01-21T07:28:35.092Z,36.10
2023-01-21T07:29:35.024Z,35.70
2023-01-21T07:30:34.993Z,37.40
2023-01-21T07:31:35.096Z,36.20
2023-01-21T07:32:34.938Z,36.30
2023-01-21T07:33:34.908Z,35.70
2023-01-21T07:34:34.882Z,34.60
2023-01-21T07:35:34.853Z,37.60
2023-01-21T07:36:34.820Z,36.60
2023-01-21T07:37:34.794Z,36.60
2023-01-21T07:38:34.758Z,35.50
2023-01-21T07:39:34.737Z,39.20
2023-01-21T07:40:34.704Z,37.70
2023-01-21T07:41:34.671Z,37.60
2023-01-21T07:42:34.650Z,39.80
2023-01-21T07:43:34.617Z,37.50
2023-01-21T07:44:34.605Z,37.10
2023-01-21T07:45:34.559Z,37.10
2023-01-21T07:46:34.542Z,37.40
2023-01-21T07:47:34.505Z,37.00
2023-01-21T07:48:34.466Z,36.40
2023-01-21T07:49:34.444Z,37.90
2023-01-21T07:50:34.412Z,37.30
2023-01-21T07:51:34.408Z,38.40
2023-01-21T07:52:34.345Z,38.60
2023-01-21T07:53:34.320Z,38.20
2023-01-21T07:54:34.295Z,39.20
2023-01-21T07:55:34.266Z,38.40
2023-01-21T07:56:34.231Z,38.10
2023-01-21T07:57:34.207Z,38.30
2023-01-21T07:58:34.172Z,37.70
2023-01-21T07:59:34.152Z,37.80
2023-01-21T08:00:34.143Z,37.10
2023-01-21T08:01:34.116Z,37.90
2023-01-21T08:02:34.232Z,37.90
2023-01-21T08:03:34.032Z,38.70
2023-01-21T08:04:34.006Z,38.40
2023-01-21T08:05:33.983Z,37.90
2023-01-21T08:06:33.962Z,39.00
2023-01-21T08:07:33.925Z,38.30
2023-01-21T08:08:33.891Z,39.60
2023-01-21T08:09:33.857Z,38.40
2023-01-21T08:10:33.827Z,38.80
2023-01-21T08:11:33.796Z,40.50
2023-01-21T08:12:33.762Z,39.40
2023-01-21T08:13:33.744Z,39.80
2023-01-21T08:14:33.711Z,39.50
2023-01-21T08:15:33.677Z,39.00
2023-01-21T08:16:33.716Z,40.30
2023-01-21T08:17:33.627Z,40.30
2023-01-21T08:18:33.590Z,41.40
2023-01-21T08:19:33.567Z,41.40
2023-01-21T08:20:33.533Z,39.50
2023-01-21T08:21:33.504Z,38.80
2023-01-21T08:22:33.468Z,39.30
2023-01-21T08:23:33.445Z,41.40
2023-01-21T08:24:33.418Z,40.50
2023-01-21T08:25:33.388Z,42.90
2023-01-21T08:26:33.369Z,46.20
2023-01-21T08:27:33.332Z,43.60
2023-01-21T08:28:33.292Z,40.70
2023-01-21T08:29:33.273Z,41.00
2023-01-21T08:30:33.299Z,39.80
2023-01-21T08:31:33.278Z,39.10
2023-01-21T08:32:33.197Z,38.30
2023-01-21T08:33:33.160Z,38.60
2023-01-21T08:34:33.129Z,40.70
2023-01-21T08:35:33.093Z,40.50
2023-01-21T08:36:33.063Z,39.10
2023-01-21T08:37:33.041Z,39.00
2023-01-21T08:38:33.005Z,37.80
2023-01-21T08:39:32.979Z,38.30
2023-01-21T08:40:32.961Z,38.30
2023-01-21T08:41:32.920Z,40.20
2023-01-21T08:42:32.886Z,38.00
2023-01-21T08:43:32.867Z,39.20
2023-01-21T08:44:32.832Z,39.20
2023-01-21T08:45:32.840Z,39.00
2023-01-21T08:46:32.772Z,38.30
2023-01-21T08:47:32.742Z,37.80
2023-01-21T08:48:32.728Z,38.90
2023-01-21T08:49:32.699Z,38.10
2023-01-21T08:50:32.649Z,37.80
2023-01-21T08:51:32.629Z,37.50
2023-01-21T08:52:32.601Z,37.90
2023-01-21T08:53:32.568Z,38.60
2023-01-21T08:54:32.547Z,37.30
2023-01-21T08:55:32.505Z,37.50
2023-01-21T08:56:32.479Z,39.10
2023-01-21T08:57:32.451Z,36.40
2023-01-21T08:58:32.421Z,38.00
2023-01-21T08:59:32.392Z,37.00
2023-01-21T09:00:32.363Z,36.60
2023-01-21T09:01:32.348Z,37.70
2023-01-21T09:02:32.299Z,36.00
2023-01-21T09:03:32.276Z,35.90
2023-01-21T09:04:32.267Z,35.80
2023-01-21T09:05:32.219Z,35.30
2023-01-21T09:06:32.184Z,36.00
2023-01-21T09:07:32.157Z,36.10
2023-01-21T09:08:32.125Z,36.60
2023-01-21T09:09:32.099Z,34.90
2023-01-21T09:10:32.069Z,36.20
2023-01-21T09:11:32.047Z,33.50
2023-01-21T09:12:32.009Z,35.10
2023-01-21T09:13:31.987Z,33.60
2023-01-21T09:14:31.949Z,34.80
2023-01-21T09:15:31.928Z,34.90
2023-01-21T09:16:32.032Z,36.10
2023-01-21T09:17:31.868Z,33.40
2023-01-21T09:18:31.834Z,33.00
2023-01-21T09:19:31.813Z,32.50
2023-01-21T09:20:31.806Z,33.40
2023-01-21T09:21:31.759Z,33.20
2023-01-21T09:22:31.716Z,33.10
2023-01-21T09:23:31.693Z,33.30
2023-01-21T09:24:31.662Z,31.60
2023-01-21T09:25:31.630Z,31.10
2023-01-21T09:26:31.615Z,31.20
2023-01-21T09:27:31.577Z,30.70
2023-01-21T09:28:31.544Z,32.30
2023-01-21T09:29:31.524Z,32.10
2023-01-21T09:30:31.523Z,32.80
2023-01-21T09:31:31.495Z,29.80
2023-01-21T09:32:31.433Z,30.10
2023-01-21T09:33:31.405Z,30.40
2023-01-21T09:34:31.369Z,30.40
2023-01-21T09:35:31.341Z,29.80
2023-01-21T09:36:31.332Z,32.00
2023-01-21T09:37:31.283Z,31.90
2023-01-21T09:38:31.256Z,31.70
2023-01-21T09:39:31.227Z,28.60
2023-01-21T09:40:31.195Z,28.30
2023-01-21T09:41:31.167Z,28.20
2023-01-21T09:42:31.142Z,26.70
2023-01-21T09:43:31.113Z,26.70
2023-01-21T09:44:31.081Z,26.30
2023-01-21T09:45:31.047Z,28.50
2023-01-21T09:46:31.025Z,26.70
2023-01-21T09:47:30.995Z,27.00
2023-01-21T09:48:30.971Z,26.90
2023-01-21T09:49:30.946Z,25.50
2023-01-21T09:50:30.909Z,25.30
2023-01-21T09:51:30.873Z,24.20
2023-01-21T09:52:30.892Z,25.70
2023-01-21T09:53:30.825Z,25.10
2023-01-21T09:54:30.790Z,24.30
2023-01-21T09:55:30.761Z,24.40
2023-01-21T09:56:30.739Z,25.70
2023-01-21T09:57:30.702Z,25.20
2023-01-21T09:58:30.672Z,26.00
2023-01-21T09:59:30.646Z,25.50
2023-01-21T10:00:30.623Z,24.60
2023-01-21T10:01:30.631Z,24.50
2023-01-21T10:02:30.556Z,26.10
2023-01-21T10:03:30.529Z,25.30
2023-01-21T10:04:30.576Z,25.00
2023-01-21T10:05:32.604Z,25.30
2023-01-21T10:06:30.446Z,25.90
2023-01-21T10:07:30.412Z,25.60
2023-01-21T10:08:30.418Z,26.60
2023-01-21T10:09:30.354Z,25.70
2023-01-21T10:10:30.327Z,25.20
2023-01-21T10:11:30.301Z,25.10
2023-01-21T10:12:30.267Z,26.30
2023-01-21T10:13:30.237Z,27.20
2023-01-21T10:14:30.222Z,25.90
2023-01-21T10:15:30.180Z,26.10
2023-01-21T10:16:30.161Z,26.20
2023-01-21T10:17:30.124Z,24.20
2023-01-21T10:18:30.996Z,25.10
2023-01-21T10:19:30.069Z,24.80
2023-01-21T10:20:30.049Z,25.50
2023-01-21T10:21:30.002Z,26.50
2023-01-21T10:22:29.985Z,27.60
2023-01-21T10:23:29.952Z,26.00
2023-01-21T10:24:29.944Z,24.30
2023-01-21T10:25:29.880Z,24.00
2023-01-21T10:26:29.870Z,25.10
2023-01-21T10:27:29.832Z,25.20
2023-01-21T10:28:29.807Z,25.20
2023-01-21T10:29:29.777Z,24.60
2023-01-21T10:30:29.844Z,23.90
2023-01-21T10:31:29.846Z,25.10
2023-01-21T10:32:29.687Z,24.70
2023-01-21T10:33:29.658Z,26.40
2023-01-21T10:34:29.630Z,25.10
2023-01-21T10:35:29.600Z,24.20
2023-01-21T10:36:29.570Z,25.70
2023-01-21T10:37:29.534Z,23.60
2023-01-21T10:38:29.510Z,24.40
2023-01-21T10:39:29.478Z,26.50
2023-01-21T10:40:29.474Z,25.30
2023-01-21T10:41:29.423Z,25.20
2023-01-21T10:42:29.395Z,23.80
2023-01-21T10:43:29.365Z,24.10
2023-01-21T10:44:29.335Z,23.70
2023-01-21T10:45:29.310Z,24.80
2023-01-21T10:46:29.301Z,25.30
2023-01-21T10:47:29.255Z,24.00
2023-01-21T10:48:29.220Z,23.80
2023-01-21T10:49:29.213Z,24.70
2023-01-21T10:50:29.159Z,23.60
2023-01-21T10:51:29.131Z,25.40
2023-01-21T10:52:29.105Z,24.00
2023-01-21T10:53:29.068Z,25.20
2023-01-21T10:54:29.046Z,24.30
2023-01-21T10:55:29.010Z,24.60
2023-01-21T10:56:29.012Z,23.90
2023-01-21T10:57:28.955Z,25.00
2023-01-21T10:58:28.936Z,23.90
2023-01-21T10:59:29.328Z,22.60
2023-01-21T11:00:28.871Z,23.80
2023-01-21T11:01:28.944Z,22.60
2023-01-21T11:02:28.866Z,23.20
2023-01-21T11:03:28.777Z,22.50
2023-01-21T11:04:28.763Z,24.30
2023-01-21T11:05:28.717Z,24.30
2023-01-21T11:06:28.694Z,23.50
2023-01-21T11:07:28.663Z,24.40
2023-01-21T11:08:28.637Z,22.70
2023-01-21T11:09:28.608Z,22.40
2023-01-21T11:10:28.586Z,23.60
2023-01-21T11:11:28.547Z,24.30
2023-01-21T11:12:28.555Z,23.30
2023-01-21T11:13:28.493Z,24.00
2023-01-21T11:14:28.475Z,23.30
2023-01-21T11:15:28.434Z,24.60
2023-01-21T11:16:28.401Z,23.20
2023-01-21T11:17:28.369Z,23.60
2023-01-21T11:18:28.350Z,23.20
2023-01-21T11:19:28.323Z,24.00
2023-01-21T11:20:28.296Z,25.20
2023-01-21T11:21:28.256Z,22.90
2023-01-21T11:22:28.231Z,22.70
2023-01-21T11:23:28.223Z,23.60
2023-01-21T11:24:28.176Z,23.90
2023-01-21T11:25:28.139Z,23.50
2023-01-21T11:26:28.128Z,24.50
2023-01-21T11:27:28.080Z,23.70
2023-01-21T11:28:28.079Z,23.90
2023-01-21T11:29:28.025Z,24.90
2023-01-21T11:30:48.378Z,25.00
2023-01-21T11:31:28.008Z,24.30
2023-01-21T11:32:27.938Z,24.30
2023-01-21T11:33:27.903Z,24.40
2023-01-21T11:34:27.885Z,25.70
2023-01-21T11:35:27.860Z,24.50
2023-01-21T11:36:27.823Z,25.60
2023-01-21T11:37:27.793Z,24.50
2023-01-21T11:38:27.766Z,25.40
2023-01-21T11:39:27.734Z,24.80
2023-01-21T11:40:27.708Z,25.30
2023-01-21T11:41:27.672Z,25.40
2023-01-21T11:42:27.652Z,26.00
2023-01-21T11:43:27.641Z,25.00
2023-01-21T11:44:27.609Z,26.10
2023-01-21T11:45:27.562Z,26.20
2023-01-21T11:46:27.591Z,26.00
2023-01-21T11:47:27.503Z,26.00
2023-01-21T11:48:27.471Z,26.20
2023-01-21T11:49:27.448Z,28.90
2023-01-21T11:50:27.415Z,26.00
2023-01-21T11:51:27.383Z,25.50
2023-01-21T11:52:27.368Z,25.50
2023-01-21T11:53:27.326Z,25.20
2023-01-21T11:54:27.306Z,26.40
2023-01-21T11:55:27.288Z,27.80
2023-01-21T11:56:27.250Z,26.50
2023-01-21T11:57:27.212Z,26.90
2023-01-21T11:58:27.182Z,26.10
2023-01-21T11:59:27.153Z,27.70
2023-01-21T12:00:27.171Z,27.30
2023-01-21T12:01:27.093Z,26.60
2023-01-21T12:02:27.106Z,27.10
2023-01-21T12:03:27.069Z,27.70
2023-01-21T12:04:27.009Z,27.10
2023-01-21T12:05:26.978Z,27.90
2023-01-21T12:06:26.954Z,26.70
2023-01-21T12:07:26.915Z,26.70
2023-01-21T12:08:26.903Z,28.60
2023-01-21T12:09:26.874Z,26.70
2023-01-21T12:10:26.834Z,27.50
2023-01-21T12:11:26.827Z,27.40
2023-01-21T12:12:26.788Z,27.90
2023-01-21T12:13:26.741Z,26.70
2023-01-21T12:14:26.727Z,27.00
2023-01-21T12:15:26.691Z,27.70
2023-01-21T12:16:26.676Z,27.50
2023-01-21T12:17:26.624Z,27.00
2023-01-21T12:18:26.611Z,27.40
2023-01-21T12:19:26.574Z,27.60
2023-01-21T12:20:26.559Z,27.50
2023-01-21T12:21:26.515Z,27.20
2023-01-21T12:22:26.493Z,27.40
2023-01-21T12:23:26.464Z,27.10
2023-01-21T12:24:26.423Z,27.30
2023-01-21T12:25:26.395Z,28.40
2023-01-21T12:26:26.372Z,27.50
2023-01-21T12:27:26.351Z,28.20
2023-01-21T12:28:26.325Z,28.40
2023-01-21T12:29:26.276Z,27.30
2023-01-21T12:30:26.310Z,29.20
2023-01-21T12:31:26.315Z,29.30
2023-01-21T12:32:26.227Z,28.30
2023-01-21T12:33:26.161Z,28.90
2023-01-21T12:34:26.140Z,28.20
2023-01-21T12:35:26.106Z,28.00
2023-01-21T12:36:26.078Z,27.80
2023-01-21T12:37:26.041Z,28.30
2023-01-21T12:38:26.900Z,29.20
2023-01-21T12:39:26.009Z,27.40
2023-01-21T12:40:25.960Z,28.70
2023-01-21T12:41:25.930Z,27.60
2023-01-21T12:42:25.905Z,28.40
2023-01-21T12:43:25.873Z,28.50
2023-01-21T12:44:25.863Z,28.00
2023-01-21T12:45:25.814Z,28.30
2023-01-21T12:46:25.857Z,29.00
2023-01-21T12:47:25.752Z,27.40
2023-01-21T12:48:25.754Z,26.40
2023-01-21T12:49:25.718Z,27.50
2023-01-21T12:50:25.685Z,28.00
2023-01-21T12:51:25.716Z,27.80
2023-01-21T12:52:25.612Z,28.20